< < Back
Terminal Aerodrome Forecast


Current Version              Previous Versions:   1  2  3  4  5  6  7  8  9  

Terminal Aerodrome Forecast

572
FTUS44 KMRX 011736
TAFCHA
TAF
KCHA 011736Z 0118/0218 24006KT P6SM SCT050 SCT150 BKN200
     FM020000 00000KT P6SM SCT150
     FM021400 23005KT P6SM SCT040 BKN150=



Latest METAR

093
SAUS80 KWBC 011900 RRC
MTRCHA
METAR KCHA 011853Z VRB05KT 10SM SCT047TCU BKN060 BKN170 BKN250 32/21
A3008 RMK AO2 SLP178 TCU NE-SE T03220206 $


USA.gov is the U.S. government's official web portal to all federal, state and local government web resources and services.